Karup, Denmark
Current Conditions -  °F | °C
As of 4:20 PM on Monday 22 Dec 2014 (Local Time) from EKKA Reporting Station
Rain Showers Rain Showers  
Wind Chill: 42°   Ceiling: 1500
Heat Index: 48°   Visibility: 6mi
Dew Point: 45°   Wind: 16mph
Humidity: 87%   Direction: 260°W
Pressure: 29.5"   Gusts: NA
Location:  56.31°N, 9.16°E
Report Text: EKKA 221520Z 26014KT 9999 -SHRA FEW012 BKN015 09/07 Q0999
Loading
Personal Weather Stations






























Interactive Weather Map New forecast layout! Learn more

10-Day Weather Forecast

Advertisements
Track Severe Weather on mobile